createdAt,value
2023-03-05T00:04:17.212Z,11.80
2023-03-05T00:09:20.804Z,11.80
2023-03-05T00:14:26.337Z,11.70
2023-03-05T00:19:31.937Z,11.70
2023-03-05T00:24:35.582Z,11.70
2023-03-05T00:29:40.437Z,11.70
2023-03-05T00:34:44.957Z,11.70
2023-03-05T00:39:48.312Z,11.70
2023-03-05T00:44:53.085Z,11.70
2023-03-05T00:49:56.561Z,11.70
2023-03-05T00:55:00.038Z,11.70
2023-03-05T01:00:05.601Z,11.70
2023-03-05T01:05:11.709Z,11.70
2023-03-05T01:10:15.516Z,11.60
2023-03-05T01:15:20.781Z,11.60
2023-03-05T01:20:24.816Z,11.60
2023-03-05T01:25:28.871Z,11.60
2023-03-05T01:30:34.148Z,11.50
2023-03-05T01:35:37.624Z,11.50
2023-03-05T01:40:43.346Z,11.40
2023-03-05T01:46:20.316Z,11.30
2023-03-05T01:51:28.077Z,11.30
2023-03-05T01:56:32.475Z,11.30
2023-03-05T02:01:40.668Z,11.30
2023-03-05T02:06:46.970Z,11.30
2023-03-05T02:11:50.797Z,11.20
2023-03-05T02:16:54.363Z,11.20
2023-03-05T02:21:59.210Z,11.30
2023-03-05T02:27:03.842Z,11.30
2023-03-05T02:32:08.810Z,11.20
2023-03-05T02:37:13.695Z,11.20
2023-03-05T02:42:17.247Z,11.20
2023-03-05T02:47:20.671Z,11.20
2023-03-05T02:52:25.740Z,11.20
2023-03-05T02:57:29.387Z,11.20
2023-03-05T03:02:33.184Z,11.10
2023-03-05T03:07:38.412Z,11.10
2023-03-05T03:12:43.202Z,11.10
2023-03-05T03:17:47.027Z,11.10
2023-03-05T03:22:52.090Z,11.10
2023-03-05T03:27:55.628Z,11.10
2023-03-05T03:32:59.428Z,11.10
2023-03-05T03:38:04.455Z,11.20
2023-03-05T03:43:08.111Z,11.10
2023-03-05T03:48:11.588Z,11.10
2023-03-05T03:53:17.773Z,11.10
2023-03-05T03:58:21.244Z,11.10
2023-03-05T04:03:24.739Z,11.10
2023-03-05T04:08:29.554Z,11.10
2023-03-05T04:13:32.906Z,11.20
2023-03-05T04:18:36.361Z,11.20
2023-03-05T04:23:41.277Z,11.30
2023-03-05T04:28:44.727Z,11.30
2023-03-05T04:33:48.156Z,11.30
2023-03-05T04:38:53.084Z,11.30
2023-03-05T04:43:56.717Z,11.30
2023-03-05T04:49:00.426Z,11.40
2023-03-05T04:54:05.379Z,11.30
2023-03-05T04:59:09.150Z,11.40
2023-03-05T05:04:12.564Z,11.40
2023-03-05T05:09:17.395Z,11.50
2023-03-05T05:14:21.398Z,11.50
2023-03-05T05:19:25.053Z,11.60
2023-03-05T05:24:29.982Z,11.60
2023-03-05T05:29:33.325Z,11.70
2023-03-05T05:34:36.753Z,11.60
2023-03-05T05:39:41.593Z,11.60
2023-03-05T05:44:45.530Z,11.70
2023-03-05T05:49:48.941Z,11.70
2023-03-05T05:54:53.709Z,11.70
2023-03-05T05:59:57.135Z,11.70
2023-03-05T06:05:00.674Z,11.70
2023-03-05T06:10:06.462Z,11.80
2023-03-05T06:15:10.861Z,11.80
2023-03-05T06:20:15.182Z,11.80
2023-03-05T06:25:20.219Z,11.80
2023-03-05T06:30:23.844Z,11.70
2023-03-05T06:35:27.446Z,11.70
2023-03-05T06:40:32.346Z,11.60
2023-03-05T06:45:35.843Z,11.60
2023-03-05T06:50:40.065Z,11.60
2023-03-05T06:55:45.340Z,11.60
2023-03-05T07:00:48.902Z,11.70
2023-03-05T07:05:52.385Z,11.70
2023-03-05T07:10:57.274Z,11.70
2023-03-05T07:16:00.667Z,11.70
2023-03-05T07:21:05.106Z,11.70
2023-03-05T07:26:10.177Z,11.70
2023-03-05T07:31:16.237Z,11.70
2023-03-05T07:36:20.448Z,11.70
2023-03-05T07:41:25.351Z,11.80
2023-03-05T07:46:31.143Z,11.80
2023-03-05T07:51:35.199Z,11.80
2023-03-05T07:56:40.043Z,11.90
2023-03-05T08:01:43.533Z,12.00
2023-03-05T08:06:47.145Z,12.10
2023-03-05T08:11:52.136Z,12.20
2023-03-05T08:16:55.621Z,12.20
2023-03-05T08:21:59.236Z,12.30
2023-03-05T08:27:03.987Z,12.40
2023-03-05T08:32:08.060Z,12.50
2023-03-05T08:37:11.495Z,12.40
2023-03-05T08:42:19.439Z,12.40
2023-03-05T08:47:25.548Z,12.40
2023-03-05T08:52:29.161Z,12.40
2023-03-05T08:57:33.880Z,12.70
2023-03-05T09:02:37.389Z,13.30
2023-03-05T09:07:40.755Z,14.20
2023-03-05T09:12:45.753Z,15.20
2023-03-05T09:17:49.258Z,16.30
2023-03-05T09:22:52.652Z,17.00
2023-03-05T09:27:57.492Z,17.50
2023-03-05T09:33:00.759Z,17.80
2023-03-05T09:38:04.184Z,17.80
2023-03-05T09:43:18.209Z,17.80
2023-03-05T09:48:27.034Z,17.60
2023-03-05T09:53:39.058Z,17.40
2023-03-05T09:58:49.045Z,17.10
2023-03-05T10:03:58.048Z,17.00
2023-03-05T10:09:09.019Z,16.70
2023-03-05T10:14:24.918Z,16.40
2023-03-05T10:20:10.297Z,16.30
2023-03-05T10:25:21.728Z,16.00
2023-03-05T10:30:49.832Z,15.80
2023-03-05T10:36:22.727Z,15.60
2023-03-05T10:41:34.178Z,15.50
2023-03-05T10:46:40.955Z,15.40
2023-03-05T10:51:51.891Z,15.30
2023-03-05T10:57:17.354Z,15.30
2023-03-05T11:02:25.015Z,15.30
2023-03-05T11:07:35.729Z,15.20
2023-03-05T11:12:45.054Z,15.10
2023-03-05T11:18:07.539Z,15.10
2023-03-05T11:23:15.068Z,15.10
2023-03-05T11:28:32.030Z,15.20
2023-03-05T11:33:39.219Z,15.30
2023-03-05T11:38:54.498Z,15.30
2023-03-05T11:44:00.088Z,15.40
2023-03-05T11:49:05.953Z,15.50
2023-03-05T11:54:16.499Z,15.50
2023-03-05T11:59:25.504Z,15.40
2023-03-05T12:04:39.205Z,15.30
2023-03-05T12:09:45.805Z,15.30
2023-03-05T12:14:57.300Z,15.20
2023-03-05T12:20:08.924Z,15.20
2023-03-05T12:25:28.049Z,15.10
2023-03-05T12:30:56.759Z,14.90
2023-03-05T12:36:34.394Z,14.70
2023-03-05T12:41:42.956Z,14.70
2023-03-05T12:47:08.388Z,14.60
2023-03-05T12:52:24.507Z,14.60
2023-03-05T12:57:31.827Z,14.50
2023-03-05T13:02:39.109Z,14.40
2023-03-05T13:07:44.832Z,14.30
2023-03-05T13:12:54.414Z,14.30
2023-03-05T13:18:01.456Z,14.20
2023-03-05T13:23:26.162Z,14.10
2023-03-05T13:28:31.266Z,14.20
2023-03-05T13:33:37.543Z,14.50
2023-03-05T13:38:49.280Z,14.80
2023-03-05T13:43:55.736Z,15.30
2023-03-05T13:49:16.972Z,15.50
2023-03-05T13:54:24.665Z,15.70
2023-03-05T13:59:31.484Z,15.80
2023-03-05T14:04:42.569Z,16.00
2023-03-05T14:09:50.636Z,16.10
2023-03-05T14:14:55.049Z,16.10
2023-03-05T14:20:24.998Z,16.00
2023-03-05T14:25:39.734Z,15.90
2023-03-05T14:30:49.393Z,15.80
2023-03-05T14:35:56.410Z,15.60
2023-03-05T14:41:24.552Z,15.40
2023-03-05T14:46:29.678Z,15.30
2023-03-05T14:51:37.370Z,15.20
2023-03-05T14:56:47.432Z,15.00
2023-03-05T15:01:53.563Z,14.90
2023-03-05T15:06:57.727Z,14.80
2023-03-05T15:12:04.508Z,14.90
2023-03-05T15:17:11.811Z,15.00
2023-03-05T15:22:18.425Z,15.10
2023-03-05T15:27:24.280Z,15.00
2023-03-05T15:32:31.136Z,15.00
2023-03-05T15:37:35.526Z,15.00
2023-03-05T15:42:42.304Z,14.90
2023-03-05T15:47:47.598Z,14.90
2023-03-05T15:52:52.515Z,14.80
2023-03-05T15:57:58.342Z,14.70
2023-03-05T16:03:04.759Z,14.70
2023-03-05T16:08:11.326Z,14.60
2023-03-05T16:13:21.647Z,14.60
2023-03-05T16:18:27.214Z,14.50
2023-03-05T16:23:33.789Z,14.50
2023-03-05T16:28:40.023Z,14.40
2023-03-05T16:33:45.572Z,14.40
2023-03-05T16:38:52.778Z,14.40
2023-03-05T16:44:08.795Z,14.30
2023-03-05T16:49:13.326Z,14.30
2023-03-05T16:54:19.015Z,14.30
2023-03-05T16:59:28.529Z,14.30
2023-03-05T17:04:33.445Z,14.20
2023-03-05T17:09:39.133Z,14.20
2023-03-05T17:14:46.298Z,14.20
2023-03-05T17:19:51.473Z,14.10
2023-03-05T17:24:57.651Z,14.10
2023-03-05T17:30:05.929Z,14.10
2023-03-05T17:35:18.949Z,14.10
2023-03-05T17:40:26.102Z,14.10
2023-03-05T17:45:35.552Z,14.10
2023-03-05T17:50:42.535Z,14.10
2023-03-05T17:55:51.031Z,14.10
2023-03-05T18:00:57.346Z,13.70
2023-03-05T18:06:02.806Z,14.20
2023-03-05T18:11:08.992Z,14.50
2023-03-05T18:16:17.603Z,14.70
2023-03-05T18:21:28.768Z,14.80
2023-03-05T18:26:34.672Z,14.90
2023-03-05T18:31:49.374Z,14.80
2023-03-05T18:36:57.387Z,14.70
2023-03-05T18:42:07.842Z,14.70
2023-03-05T18:47:19.430Z,14.70
2023-03-05T18:52:25.140Z,14.60
2023-03-05T18:57:36.003Z,14.50
2023-03-05T19:02:44.878Z,14.40
2023-03-05T19:07:52.111Z,14.40
2023-03-05T19:13:11.890Z,14.30
2023-03-05T19:18:31.067Z,14.20
2023-03-05T19:23:43.963Z,14.20
2023-03-05T19:28:49.082Z,14.20
2023-03-05T19:34:00.462Z,14.30
2023-03-05T19:39:14.795Z,14.30
2023-03-05T19:44:22.475Z,14.30
2023-03-05T19:49:29.620Z,14.30
2023-03-05T19:54:36.897Z,14.20
2023-03-05T19:59:43.150Z,14.20
2023-03-05T20:04:53.037Z,14.20
2023-03-05T20:09:58.943Z,14.20
2023-03-05T20:15:05.870Z,14.10
2023-03-05T20:20:15.380Z,14.20
2023-03-05T20:25:25.497Z,14.50
2023-03-05T20:30:35.353Z,14.80
2023-03-05T20:35:42.026Z,15.00
2023-03-05T20:40:47.817Z,15.10
2023-03-05T20:45:53.648Z,15.10
2023-03-05T20:51:02.104Z,15.00
2023-03-05T20:56:08.646Z,15.00
2023-03-05T21:01:13.798Z,14.90
2023-03-05T21:06:23.374Z,14.90
2023-03-05T21:11:29.179Z,14.70
2023-03-05T21:16:34.449Z,14.70
2023-03-05T21:21:45.259Z,14.60
2023-03-05T21:26:49.924Z,14.50
2023-03-05T21:31:55.217Z,14.40
2023-03-05T21:37:00.844Z,14.30
2023-03-05T21:42:05.340Z,14.30
2023-03-05T21:47:09.192Z,14.20
2023-03-05T21:52:14.486Z,14.10
2023-03-05T21:57:18.212Z,14.10
2023-03-05T22:02:22.655Z,14.00
2023-03-05T22:07:28.151Z,14.00
2023-03-05T22:12:43.773Z,14.00
2023-03-05T22:17:47.211Z,13.90
2023-03-05T22:22:52.234Z,13.90
2023-03-05T22:27:56.043Z,13.80
2023-03-05T22:32:59.723Z,13.80
2023-03-05T22:38:04.635Z,13.80
2023-03-05T22:43:08.122Z,13.80
2023-03-05T22:48:12.419Z,13.70
2023-03-05T22:53:17.255Z,13.80
2023-03-05T22:58:20.673Z,13.80
2023-03-05T23:03:24.281Z,13.80
2023-03-05T23:08:29.324Z,13.80
2023-03-05T23:13:32.837Z,13.70
2023-03-05T23:18:36.263Z,13.70
2023-03-05T23:23:41.247Z,13.80
2023-03-05T23:28:44.772Z,13.80
2023-03-05T23:33:48.183Z,13.70
2023-03-05T23:38:57.607Z,13.80
2023-03-05T23:44:01.019Z,13.70
2023-03-05T23:49:05.770Z,13.70
2023-03-05T23:54:10.698Z,13.70
2023-03-05T23:59:14.068Z,13.70
